sensor_id;sensor_type;location;lat;lon;timestamp;P1;durP1;ratioP1;P2;durP2;ratioP2
26864;SDS011;40618;51.166;10.322;2023-09-18T00:00:01;4.85;;;2.97;;
26864;SDS011;40618;51.166;10.322;2023-09-18T00:02:34;5.32;;;2.58;;
26864;SDS011;40618;51.166;10.322;2023-09-18T00:04:59;4.75;;;2.78;;
26864;SDS011;40618;51.166;10.322;2023-09-18T00:07:25;7.28;;;2.90;;
26864;SDS011;40618;51.166;10.322;2023-09-18T00:09:51;4.18;;;2.70;;
26864;SDS011;40618;51.166;10.322;2023-09-18T00:12:17;3.28;;;2.63;;
26864;SDS011;40618;51.166;10.322;2023-09-18T00:14:43;3.72;;;2.60;;
26864;SDS011;40618;51.166;10.322;2023-09-18T00:17:08;2.85;;;2.58;;
26864;SDS011;40618;51.166;10.322;2023-09-18T00:19:34;3.88;;;2.65;;
26864;SDS011;40618;51.166;10.322;2023-09-18T00:22:00;3.47;;;2.30;;
26864;SDS011;40618;51.166;10.322;2023-09-18T00:24:26;2.53;;;2.28;;
26864;SDS011;40618;51.166;10.322;2023-09-18T00:26:54;2.80;;;2.60;;
26864;SDS011;40618;51.166;10.322;2023-09-18T00:29:20;4.70;;;2.83;;
26864;SDS011;40618;51.166;10.322;2023-09-18T00:31:46;5.00;;;2.83;;
26864;SDS011;40618;51.166;10.322;2023-09-18T00:34:12;2.78;;;2.53;;
26864;SDS011;40618;51.166;10.322;2023-09-18T00:36:37;3.85;;;2.67;;
26864;SDS011;40618;51.166;10.322;2023-09-18T00:39:03;3.17;;;2.70;;
26864;SDS011;40618;51.166;10.322;2023-09-18T00:41:29;4.30;;;2.50;;
26864;SDS011;40618;51.166;10.322;2023-09-18T00:43:54;4.28;;;2.63;;
26864;SDS011;40618;51.166;10.322;2023-09-18T00:46:21;4.72;;;3.00;;
26864;SDS011;40618;51.166;10.322;2023-09-18T00:48:47;2.53;;;2.13;;
26864;SDS011;40618;51.166;10.322;2023-09-18T00:51:14;3.58;;;2.75;;
26864;SDS011;40618;51.166;10.322;2023-09-18T00:53:42;3.67;;;2.72;;
26864;SDS011;40618;51.166;10.322;2023-09-18T00:56:13;6.85;;;2.67;;
26864;SDS011;40618;51.166;10.322;2023-09-18T00:58:39;2.92;;;2.63;;
26864;SDS011;40618;51.166;10.322;2023-09-18T01:01:05;3.00;;;2.67;;
26864;SDS011;40618;51.166;10.322;2023-09-18T01:03:31;2.78;;;2.58;;
26864;SDS011;40618;51.166;10.322;2023-09-18T01:05:57;4.00;;;2.70;;
26864;SDS011;40618;51.166;10.322;2023-09-18T01:08:24;3.10;;;2.55;;
26864;SDS011;40618;51.166;10.322;2023-09-18T01:11:06;3.17;;;2.70;;
26864;SDS011;40618;51.166;10.322;2023-09-18T01:13:49;2.78;;;2.35;;
26864;SDS011;40618;51.166;10.322;2023-09-18T01:16:32;6.60;;;2.47;;
26864;SDS011;40618;51.166;10.322;2023-09-18T01:19:15;2.53;;;2.20;;
26864;SDS011;40618;51.166;10.322;2023-09-18T01:21:41;3.40;;;2.40;;
26864;SDS011;40618;51.166;10.322;2023-09-18T01:24:10;4.53;;;2.85;;
26864;SDS011;40618;51.166;10.322;2023-09-18T01:26:35;3.65;;;2.78;;
26864;SDS011;40618;51.166;10.322;2023-09-18T01:29:01;2.65;;;2.30;;
26864;SDS011;40618;51.166;10.322;2023-09-18T01:31:27;3.33;;;2.90;;
26864;SDS011;40618;51.166;10.322;2023-09-18T01:33:53;3.95;;;2.67;;
26864;SDS011;40618;51.166;10.322;2023-09-18T01:36:20;2.85;;;2.65;;
26864;SDS011;40618;51.166;10.322;2023-09-18T01:38:46;3.50;;;3.08;;
26864;SDS011;40618;51.166;10.322;2023-09-18T01:41:15;5.03;;;2.40;;
26864;SDS011;40618;51.166;10.322;2023-09-18T01:43:40;4.85;;;3.30;;
26864;SDS011;40618;51.166;10.322;2023-09-18T01:46:06;4.35;;;3.08;;
26864;SDS011;40618;51.166;10.322;2023-09-18T01:48:31;5.25;;;4.18;;
26864;SDS011;40618;51.166;10.322;2023-09-18T01:50:57;6.15;;;4.30;;
26864;SDS011;40618;51.166;10.322;2023-09-18T01:53:23;7.07;;;4.45;;
26864;SDS011;40618;51.166;10.322;2023-09-18T01:55:49;7.13;;;5.20;;
26864;SDS011;40618;51.166;10.322;2023-09-18T01:58:15;6.75;;;4.88;;
26864;SDS011;40618;51.166;10.322;2023-09-18T02:00:40;6.38;;;4.45;;
26864;SDS011;40618;51.166;10.322;2023-09-18T02:03:06;5.32;;;4.53;;
26864;SDS011;40618;51.166;10.322;2023-09-18T02:05:31;5.13;;;4.22;;
26864;SDS011;40618;51.166;10.322;2023-09-18T02:07:57;4.70;;;3.83;;
26864;SDS011;40618;51.166;10.322;2023-09-18T02:10:23;4.85;;;3.78;;
26864;SDS011;40618;51.166;10.322;2023-09-18T02:12:48;5.32;;;3.95;;
26864;SDS011;40618;51.166;10.322;2023-09-18T02:15:15;5.50;;;3.53;;
26864;SDS011;40618;51.166;10.322;2023-09-18T02:17:41;8.30;;;4.10;;
26864;SDS011;40618;51.166;10.322;2023-09-18T02:20:07;5.13;;;3.85;;
26864;SDS011;40618;51.166;10.322;2023-09-18T02:22:36;5.22;;;3.58;;
26864;SDS011;40618;51.166;10.322;2023-09-18T02:25:05;5.57;;;3.42;;
26864;SDS011;40618;51.166;10.322;2023-09-18T02:27:31;4.93;;;4.32;;
26864;SDS011;40618;51.166;10.322;2023-09-18T02:29:56;7.22;;;3.65;;
26864;SDS011;40618;51.166;10.322;2023-09-18T02:32:22;3.63;;;3.30;;
26864;SDS011;40618;51.166;10.322;2023-09-18T02:34:48;6.30;;;3.63;;
26864;SDS011;40618;51.166;10.322;2023-09-18T02:37:13;3.75;;;3.38;;
26864;SDS011;40618;51.166;10.322;2023-09-18T02:39:39;3.95;;;3.45;;
26864;SDS011;40618;51.166;10.322;2023-09-18T02:42:04;3.70;;;3.25;;
26864;SDS011;40618;51.166;10.322;2023-09-18T02:44:30;9.77;;;3.65;;
26864;SDS011;40618;51.166;10.322;2023-09-18T02:46:55;3.90;;;3.38;;
26864;SDS011;40618;51.166;10.322;2023-09-18T02:49:21;9.13;;;3.47;;
26864;SDS011;40618;51.166;10.322;2023-09-18T02:51:47;3.90;;;3.13;;
26864;SDS011;40618;51.166;10.322;2023-09-18T02:54:13;4.38;;;3.65;;
26864;SDS011;40618;51.166;10.322;2023-09-18T02:56:39;4.13;;;3.47;;
26864;SDS011;40618;51.166;10.322;2023-09-18T02:59:05;4.18;;;3.55;;
26864;SDS011;40618;51.166;10.322;2023-09-18T03:01:30;4.03;;;3.63;;
26864;SDS011;40618;51.166;10.322;2023-09-18T03:03:56;5.38;;;4.05;;
26864;SDS011;40618;51.166;10.322;2023-09-18T03:06:21;6.25;;;3.53;;
26864;SDS011;40618;51.166;10.322;2023-09-18T03:08:47;5.05;;;3.65;;
26864;SDS011;40618;51.166;10.322;2023-09-18T03:11:13;4.95;;;3.40;;
26864;SDS011;40618;51.166;10.322;2023-09-18T03:13:44;5.32;;;3.47;;
26864;SDS011;40618;51.166;10.322;2023-09-18T03:16:11;4.63;;;3.67;;
26864;SDS011;40618;51.166;10.322;2023-09-18T03:18:38;3.92;;;2.85;;
26864;SDS011;40618;51.166;10.322;2023-09-18T03:21:03;10.05;;;3.28;;
26864;SDS011;40618;51.166;10.322;2023-09-18T03:23:29;4.45;;;3.78;;
26864;SDS011;40618;51.166;10.322;2023-09-18T03:25:55;3.58;;;3.28;;
26864;SDS011;40618;51.166;10.322;2023-09-18T03:28:21;3.38;;;3.08;;
26864;SDS011;40618;51.166;10.322;2023-09-18T03:30:46;4.30;;;3.40;;
26864;SDS011;40618;51.166;10.322;2023-09-18T03:33:12;4.10;;;3.17;;
26864;SDS011;40618;51.166;10.322;2023-09-18T03:35:47;4.25;;;3.47;;
26864;SDS011;40618;51.166;10.322;2023-09-18T03:38:15;4.28;;;3.20;;
26864;SDS011;40618;51.166;10.322;2023-09-18T03:40:40;6.70;;;3.72;;
26864;SDS011;40618;51.166;10.322;2023-09-18T03:43:06;3.65;;;3.33;;
26864;SDS011;40618;51.166;10.322;2023-09-18T03:45:33;3.58;;;3.22;;
26864;SDS011;40618;51.166;10.322;2023-09-18T03:47:59;5.30;;;4.07;;
26864;SDS011;40618;51.166;10.322;2023-09-18T03:50:25;5.35;;;3.58;;
26864;SDS011;40618;51.166;10.322;2023-09-18T03:52:52;5.07;;;3.42;;
26864;SDS011;40618;51.166;10.322;2023-09-18T03:55:17;4.10;;;3.28;;
26864;SDS011;40618;51.166;10.322;2023-09-18T03:57:43;4.30;;;3.22;;
26864;SDS011;40618;51.166;10.322;2023-09-18T04:00:11;3.45;;;2.70;;
26864;SDS011;40618;51.166;10.322;2023-09-18T04:02:37;4.68;;;3.10;;
26864;SDS011;40618;51.166;10.322;2023-09-18T04:05:03;3.47;;;3.10;;
26864;SDS011;40618;51.166;10.322;2023-09-18T04:07:29;7.38;;;3.40;;
26864;SDS011;40618;51.166;10.322;2023-09-18T04:09:56;4.05;;;3.65;;
26864;SDS011;40618;51.166;10.322;2023-09-18T04:12:22;4.75;;;3.50;;
26864;SDS011;40618;51.166;10.322;2023-09-18T04:14:48;5.15;;;3.45;;
26864;SDS011;40618;51.166;10.322;2023-09-18T04:17:14;7.10;;;3.53;;
26864;SDS011;40618;51.166;10.322;2023-09-18T04:19:40;3.67;;;2.88;;
26864;SDS011;40618;51.166;10.322;2023-09-18T04:22:06;3.40;;;3.10;;
26864;SDS011;40618;51.166;10.322;2023-09-18T04:24:31;3.85;;;3.33;;
26864;SDS011;40618;51.166;10.322;2023-09-18T04:26:58;7.28;;;3.92;;
26864;SDS011;40618;51.166;10.322;2023-09-18T04:29:23;5.35;;;3.92;;
26864;SDS011;40618;51.166;10.322;2023-09-18T04:31:49;4.25;;;3.20;;
26864;SDS011;40618;51.166;10.322;2023-09-18T04:34:14;39.08;;;15.98;;
26864;SDS011;40618;51.166;10.322;2023-09-18T04:36:40;24.80;;;10.43;;
26864;SDS011;40618;51.166;10.322;2023-09-18T04:39:06;11.52;;;6.18;;
26864;SDS011;40618;51.166;10.322;2023-09-18T04:41:32;8.63;;;5.13;;
26864;SDS011;40618;51.166;10.322;2023-09-18T04:43:58;7.47;;;4.13;;
26864;SDS011;40618;51.166;10.322;2023-09-18T04:46:24;9.90;;;5.45;;
26864;SDS011;40618;51.166;10.322;2023-09-18T04:48:50;9.40;;;5.47;;
26864;SDS011;40618;51.166;10.322;2023-09-18T04:51:16;6.60;;;5.07;;
26864;SDS011;40618;51.166;10.322;2023-09-18T04:53:42;6.60;;;5.15;;
26864;SDS011;40618;51.166;10.322;2023-09-18T04:56:08;5.10;;;3.58;;
26864;SDS011;40618;51.166;10.322;2023-09-18T04:58:35;5.30;;;3.83;;
26864;SDS011;40618;51.166;10.322;2023-09-18T05:01:02;6.45;;;4.13;;
26864;SDS011;40618;51.166;10.322;2023-09-18T05:03:30;4.20;;;3.28;;
26864;SDS011;40618;51.166;10.322;2023-09-18T05:05:59;5.15;;;3.60;;
26864;SDS011;40618;51.166;10.322;2023-09-18T05:08:24;5.53;;;3.35;;
26864;SDS011;40618;51.166;10.322;2023-09-18T05:10:50;4.07;;;3.38;;
26864;SDS011;40618;51.166;10.322;2023-09-18T05:13:16;4.65;;;2.92;;
26864;SDS011;40618;51.166;10.322;2023-09-18T05:15:41;3.65;;;3.35;;
26864;SDS011;40618;51.166;10.322;2023-09-18T05:18:07;5.82;;;2.92;;
26864;SDS011;40618;51.166;10.322;2023-09-18T05:20:33;4.05;;;2.95;;
26864;SDS011;40618;51.166;10.322;2023-09-18T05:23:00;3.10;;;2.80;;
26864;SDS011;40618;51.166;10.322;2023-09-18T05:25:27;2.90;;;2.65;;
26864;SDS011;40618;51.166;10.322;2023-09-18T05:28:03;5.47;;;3.20;;
26864;SDS011;40618;51.166;10.322;2023-09-18T05:30:31;3.67;;;3.13;;
26864;SDS011;40618;51.166;10.322;2023-09-18T05:33:00;5.37;;;3.10;;
26864;SDS011;40618;51.166;10.322;2023-09-18T05:35:39;8.10;;;2.83;;
26864;SDS011;40618;51.166;10.322;2023-09-18T05:38:07;6.13;;;3.00;;
26864;SDS011;40618;51.166;10.322;2023-09-18T05:40:38;3.85;;;2.90;;
26864;SDS011;40618;51.166;10.322;2023-09-18T05:43:04;5.13;;;2.60;;
26864;SDS011;40618;51.166;10.322;2023-09-18T05:45:31;3.75;;;3.00;;
26864;SDS011;40618;51.166;10.322;2023-09-18T05:47:57;3.80;;;2.85;;
26864;SDS011;40618;51.166;10.322;2023-09-18T05:50:29;2.90;;;2.63;;
26864;SDS011;40618;51.166;10.322;2023-09-18T05:53:00;3.83;;;2.97;;
26864;SDS011;40618;51.166;10.322;2023-09-18T05:55:29;3.40;;;2.65;;
26864;SDS011;40618;51.166;10.322;2023-09-18T05:57:56;2.72;;;2.38;;
26864;SDS011;40618;51.166;10.322;2023-09-18T06:00:22;4.03;;;2.80;;
26864;SDS011;40618;51.166;10.322;2023-09-18T06:02:48;3.40;;;2.75;;
26864;SDS011;40618;51.166;10.322;2023-09-18T06:05:16;3.42;;;3.08;;
26864;SDS011;40618;51.166;10.322;2023-09-18T06:07:46;3.80;;;2.85;;
26864;SDS011;40618;51.166;10.322;2023-09-18T06:10:13;4.38;;;2.60;;
26864;SDS011;40618;51.166;10.322;2023-09-18T06:12:39;3.45;;;2.85;;
26864;SDS011;40618;51.166;10.322;2023-09-18T06:15:08;5.50;;;3.28;;
26864;SDS011;40618;51.166;10.322;2023-09-18T06:17:38;5.22;;;3.80;;
26864;SDS011;40618;51.166;10.322;2023-09-18T06:20:06;5.00;;;3.47;;
26864;SDS011;40618;51.166;10.322;2023-09-18T06:22:38;4.07;;;3.70;;
26864;SDS011;40618;51.166;10.322;2023-09-18T06:25:05;5.25;;;3.15;;
26864;SDS011;40618;51.166;10.322;2023-09-18T06:27:35;3.25;;;2.97;;
26864;SDS011;40618;51.166;10.322;2023-09-18T06:30:03;3.88;;;2.92;;
26864;SDS011;40618;51.166;10.322;2023-09-18T06:32:30;3.03;;;2.65;;
26864;SDS011;40618;51.166;10.322;2023-09-18T06:34:55;2.90;;;2.50;;
26864;SDS011;40618;51.166;10.322;2023-09-18T06:37:22;5.07;;;3.00;;
26864;SDS011;40618;51.166;10.322;2023-09-18T06:39:49;5.80;;;3.47;;
26864;SDS011;40618;51.166;10.322;2023-09-18T06:42:14;4.22;;;3.58;;
26864;SDS011;40618;51.166;10.322;2023-09-18T06:44:40;4.75;;;3.17;;
26864;SDS011;40618;51.166;10.322;2023-09-18T06:47:06;5.68;;;3.17;;
26864;SDS011;40618;51.166;10.322;2023-09-18T06:49:32;8.43;;;3.05;;
26864;SDS011;40618;51.166;10.322;2023-09-18T06:51:57;7.00;;;3.58;;
26864;SDS011;40618;51.166;10.322;2023-09-18T06:54:23;6.45;;;3.38;;
26864;SDS011;40618;51.166;10.322;2023-09-18T06:56:49;10.57;;;3.92;;
26864;SDS011;40618;51.166;10.322;2023-09-18T06:59:15;5.80;;;3.92;;
26864;SDS011;40618;51.166;10.322;2023-09-18T07:01:40;8.90;;;4.03;;
26864;SDS011;40618;51.166;10.322;2023-09-18T07:04:07;7.97;;;4.15;;
26864;SDS011;40618;51.166;10.322;2023-09-18T07:06:33;4.03;;;3.63;;
26864;SDS011;40618;51.166;10.322;2023-09-18T07:08:58;7.10;;;3.20;;
26864;SDS011;40618;51.166;10.322;2023-09-18T07:11:24;5.15;;;3.22;;
26864;SDS011;40618;51.166;10.322;2023-09-18T07:13:50;4.10;;;2.85;;
26864;SDS011;40618;51.166;10.322;2023-09-18T07:16:16;2.88;;;2.42;;
26864;SDS011;40618;51.166;10.322;2023-09-18T07:18:41;6.47;;;3.03;;
26864;SDS011;40618;51.166;10.322;2023-09-18T07:21:07;5.35;;;2.97;;
26864;SDS011;40618;51.166;10.322;2023-09-18T07:23:33;3.47;;;2.53;;
26864;SDS011;40618;51.166;10.322;2023-09-18T07:26:02;4.55;;;2.88;;
26864;SDS011;40618;51.166;10.322;2023-09-18T07:28:28;4.47;;;2.70;;
26864;SDS011;40618;51.166;10.322;2023-09-18T07:30:54;5.53;;;2.88;;
26864;SDS011;40618;51.166;10.322;2023-09-18T07:33:19;4.13;;;2.67;;
26864;SDS011;40618;51.166;10.322;2023-09-18T07:35:49;3.25;;;2.70;;
26864;SDS011;40618;51.166;10.322;2023-09-18T07:38:18;4.93;;;2.45;;
26864;SDS011;40618;51.166;10.322;2023-09-18T07:40:44;4.18;;;2.80;;
26864;SDS011;40618;51.166;10.322;2023-09-18T07:43:12;4.95;;;2.80;;
26864;SDS011;40618;51.166;10.322;2023-09-18T07:45:38;5.75;;;2.55;;
26864;SDS011;40618;51.166;10.322;2023-09-18T07:48:09;9.38;;;2.58;;
26864;SDS011;40618;51.166;10.322;2023-09-18T07:50:35;3.92;;;3.10;;
26864;SDS011;40618;51.166;10.322;2023-09-18T07:53:01;2.97;;;2.53;;
26864;SDS011;40618;51.166;10.322;2023-09-18T07:55:28;6.97;;;2.85;;
26864;SDS011;40618;51.166;10.322;2023-09-18T07:57:54;5.55;;;3.60;;
26864;SDS011;40618;51.166;10.322;2023-09-18T08:00:21;5.75;;;2.88;;
26864;SDS011;40618;51.166;10.322;2023-09-18T08:02:47;3.70;;;2.60;;
26864;SDS011;40618;51.166;10.322;2023-09-18T08:05:15;4.53;;;2.60;;
26864;SDS011;40618;51.166;10.322;2023-09-18T08:07:42;7.57;;;3.13;;
26864;SDS011;40618;51.166;10.322;2023-09-18T08:10:08;3.65;;;2.78;;
26864;SDS011;40618;51.166;10.322;2023-09-18T08:12:35;6.78;;;3.00;;
26864;SDS011;40618;51.166;10.322;2023-09-18T08:15:01;4.38;;;3.30;;
26864;SDS011;40618;51.166;10.322;2023-09-18T08:17:28;2.83;;;2.47;;
26864;SDS011;40618;51.166;10.322;2023-09-18T08:19:53;5.10;;;3.03;;
26864;SDS011;40618;51.166;10.322;2023-09-18T08:22:20;4.70;;;2.78;;
26864;SDS011;40618;51.166;10.322;2023-09-18T08:24:47;4.57;;;2.80;;
26864;SDS011;40618;51.166;10.322;2023-09-18T08:27:16;7.50;;;3.35;;
26864;SDS011;40618;51.166;10.322;2023-09-18T08:29:45;5.07;;;2.88;;
26864;SDS011;40618;51.166;10.322;2023-09-18T08:32:11;3.75;;;3.05;;
26864;SDS011;40618;51.166;10.322;2023-09-18T08:34:37;2.88;;;2.58;;
26864;SDS011;40618;51.166;10.322;2023-09-18T08:37:03;4.28;;;2.95;;
26864;SDS011;40618;51.166;10.322;2023-09-18T08:39:29;8.18;;;3.38;;
26864;SDS011;40618;51.166;10.322;2023-09-18T08:42:02;6.15;;;2.90;;
26864;SDS011;40618;51.166;10.322;2023-09-18T08:44:30;3.90;;;2.75;;
26864;SDS011;40618;51.166;10.322;2023-09-18T08:46:56;4.68;;;2.78;;
26864;SDS011;40618;51.166;10.322;2023-09-18T08:49:22;3.63;;;2.55;;
26864;SDS011;40618;51.166;10.322;2023-09-18T08:51:50;4.93;;;2.53;;
26864;SDS011;40618;51.166;10.322;2023-09-18T08:54:18;3.40;;;2.70;;
26864;SDS011;40618;51.166;10.322;2023-09-18T08:56:44;6.50;;;2.80;;
26864;SDS011;40618;51.166;10.322;2023-09-18T08:59:10;9.45;;;3.47;;
26864;SDS011;40618;51.166;10.322;2023-09-18T09:01:38;3.20;;;2.28;;
26864;SDS011;40618;51.166;10.322;2023-09-18T09:04:04;4.68;;;2.72;;
26864;SDS011;40618;51.166;10.322;2023-09-18T09:06:30;3.70;;;2.55;;
26864;SDS011;40618;51.166;10.322;2023-09-18T09:08:56;6.68;;;2.55;;
26864;SDS011;40618;51.166;10.322;2023-09-18T09:11:22;4.13;;;2.42;;
26864;SDS011;40618;51.166;10.322;2023-09-18T09:13:47;4.80;;;2.58;;
26864;SDS011;40618;51.166;10.322;2023-09-18T09:16:38;2.97;;;2.00;;
26864;SDS011;40618;51.166;10.322;2023-09-18T09:19:05;3.85;;;2.05;;
26864;SDS011;40618;51.166;10.322;2023-09-18T09:21:40;4.72;;;2.25;;
26864;SDS011;40618;51.166;10.322;2023-09-18T09:24:08;4.57;;;2.17;;
26864;SDS011;40618;51.166;10.322;2023-09-18T09:26:38;3.38;;;2.15;;
26864;SDS011;40618;51.166;10.322;2023-09-18T09:29:15;3.90;;;1.80;;
26864;SDS011;40618;51.166;10.322;2023-09-18T09:31:45;4.80;;;1.85;;
26864;SDS011;40618;51.166;10.322;2023-09-18T09:34:11;4.75;;;1.88;;
26864;SDS011;40618;51.166;10.322;2023-09-18T09:36:51;9.73;;;1.85;;
26864;SDS011;40618;51.166;10.322;2023-09-18T09:39:21;2.80;;;1.58;;
26864;SDS011;40618;51.166;10.322;2023-09-18T09:41:49;3.53;;;1.55;;
26864;SDS011;40618;51.166;10.322;2023-09-18T09:44:18;5.07;;;1.60;;
26864;SDS011;40618;51.166;10.322;2023-09-18T09:46:46;4.20;;;2.10;;
26864;SDS011;40618;51.166;10.322;2023-09-18T09:49:14;4.93;;;2.10;;
26864;SDS011;40618;51.166;10.322;2023-09-18T09:51:40;6.47;;;1.52;;
26864;SDS011;40618;51.166;10.322;2023-09-18T09:54:07;3.53;;;1.35;;
26864;SDS011;40618;51.166;10.322;2023-09-18T09:56:40;5.15;;;1.50;;
26864;SDS011;40618;51.166;10.322;2023-09-18T09:59:08;5.40;;;1.77;;
26864;SDS011;40618;51.166;10.322;2023-09-18T10:01:37;10.15;;;1.83;;
26864;SDS011;40618;51.166;10.322;2023-09-18T10:04:11;3.75;;;1.95;;
26864;SDS011;40618;51.166;10.322;2023-09-18T10:06:42;4.22;;;1.70;;
26864;SDS011;40618;51.166;10.322;2023-09-18T10:09:13;3.20;;;1.35;;
26864;SDS011;40618;51.166;10.322;2023-09-18T10:11:41;5.68;;;1.63;;
26864;SDS011;40618;51.166;10.322;2023-09-18T10:14:20;6.32;;;1.27;;
26864;SDS011;40618;51.166;10.322;2023-09-18T10:16:56;4.18;;;1.77;;
26864;SDS011;40618;51.166;10.322;2023-09-18T10:19:38;6.80;;;1.58;;
26864;SDS011;40618;51.166;10.322;2023-09-18T10:22:33;3.85;;;1.30;;
26864;SDS011;40618;51.166;10.322;2023-09-18T10:27:48;2.70;;;1.13;;
26864;SDS011;40618;51.166;10.322;2023-09-18T10:30:17;7.20;;;1.30;;
26864;SDS011;40618;51.166;10.322;2023-09-18T10:32:45;4.68;;;1.27;;
26864;SDS011;40618;51.166;10.322;2023-09-18T10:35:11;3.10;;;1.27;;
26864;SDS011;40618;51.166;10.322;2023-09-18T10:37:38;2.45;;;1.00;;
26864;SDS011;40618;51.166;10.322;2023-09-18T10:40:05;3.30;;;1.40;;
26864;SDS011;40618;51.166;10.322;2023-09-18T10:42:34;4.20;;;1.05;;
26864;SDS011;40618;51.166;10.322;2023-09-18T10:45:02;3.42;;;1.10;;
26864;SDS011;40618;51.166;10.322;2023-09-18T10:47:29;3.42;;;1.42;;
26864;SDS011;40618;51.166;10.322;2023-09-18T10:49:56;2.22;;;1.00;;
26864;SDS011;40618;51.166;10.322;2023-09-18T10:52:22;3.85;;;1.27;;
26864;SDS011;40618;51.166;10.322;2023-09-18T10:54:48;3.70;;;1.35;;
26864;SDS011;40618;51.166;10.322;2023-09-18T10:57:13;5.95;;;1.73;;
26864;SDS011;40618;51.166;10.322;2023-09-18T10:59:43;3.65;;;1.33;;
26864;SDS011;40618;51.166;10.322;2023-09-18T11:02:15;6.25;;;1.50;;
26864;SDS011;40618;51.166;10.322;2023-09-18T11:04:42;4.45;;;1.02;;
26864;SDS011;40618;51.166;10.322;2023-09-18T11:07:19;3.53;;;1.30;;
26864;SDS011;40618;51.166;10.322;2023-09-18T11:09:46;5.20;;;1.38;;
26864;SDS011;40618;51.166;10.322;2023-09-18T11:12:16;4.78;;;1.30;;
26864;SDS011;40618;51.166;10.322;2023-09-18T11:22:45;5.32;;;1.80;;
26864;SDS011;40618;51.166;10.322;2023-09-18T11:28:01;5.22;;;1.17;;
26864;SDS011;40618;51.166;10.322;2023-09-18T11:30:28;2.15;;;1.27;;
26864;SDS011;40618;51.166;10.322;2023-09-18T11:32:55;5.15;;;1.08;;
26864;SDS011;40618;51.166;10.322;2023-09-18T11:35:21;4.30;;;1.70;;
26864;SDS011;40618;51.166;10.322;2023-09-18T11:37:47;4.00;;;1.45;;
26864;SDS011;40618;51.166;10.322;2023-09-18T11:40:33;4.38;;;1.33;;
26864;SDS011;40618;51.166;10.322;2023-09-18T11:45:57;6.53;;;1.90;;
26864;SDS011;40618;51.166;10.322;2023-09-18T11:48:25;3.00;;;1.20;;
26864;SDS011;40618;51.166;10.322;2023-09-18T11:50:59;3.67;;;1.25;;
26864;SDS011;40618;51.166;10.322;2023-09-18T11:53:29;3.75;;;1.30;;
26864;SDS011;40618;51.166;10.322;2023-09-18T11:56:02;2.65;;;1.02;;
26864;SDS011;40618;51.166;10.322;2023-09-18T11:58:28;3.05;;;1.13;;
26864;SDS011;40618;51.166;10.322;2023-09-18T12:00:54;2.58;;;1.23;;
26864;SDS011;40618;51.166;10.322;2023-09-18T12:06:00;3.05;;;1.38;;
26864;SDS011;40618;51.166;10.322;2023-09-18T12:08:30;4.55;;;1.75;;
26864;SDS011;40618;51.166;10.322;2023-09-18T12:10:57;2.42;;;1.30;;
26864;SDS011;40618;51.166;10.322;2023-09-18T12:13:24;3.88;;;1.50;;
26864;SDS011;40618;51.166;10.322;2023-09-18T12:16:01;5.25;;;1.40;;
26864;SDS011;40618;51.166;10.322;2023-09-18T12:18:33;8.70;;;2.10;;
26864;SDS011;40618;51.166;10.322;2023-09-18T12:21:01;6.28;;;1.25;;
26864;SDS011;40618;51.166;10.322;2023-09-18T12:23:35;5.75;;;1.38;;
26864;SDS011;40618;51.166;10.322;2023-09-18T12:26:03;3.80;;;1.50;;
26864;SDS011;40618;51.166;10.322;2023-09-18T12:28:32;4.55;;;1.77;;
26864;SDS011;40618;51.166;10.322;2023-09-18T12:31:00;2.63;;;1.23;;
26864;SDS011;40618;51.166;10.322;2023-09-18T12:33:33;3.08;;;1.20;;
26864;SDS011;40618;51.166;10.322;2023-09-18T12:36:01;9.25;;;1.67;;
26864;SDS011;40618;51.166;10.322;2023-09-18T12:38:29;4.82;;;1.52;;
26864;SDS011;40618;51.166;10.322;2023-09-18T12:40:55;1.75;;;1.20;;
26864;SDS011;40618;51.166;10.322;2023-09-18T12:43:21;7.00;;;1.70;;
26864;SDS011;40618;51.166;10.322;2023-09-18T12:45:48;6.75;;;1.52;;
26864;SDS011;40618;51.166;10.322;2023-09-18T12:48:16;5.43;;;1.40;;
26864;SDS011;40618;51.166;10.322;2023-09-18T12:50:41;2.13;;;1.35;;
26864;SDS011;40618;51.166;10.322;2023-09-18T12:53:11;4.10;;;1.30;;
26864;SDS011;40618;51.166;10.322;2023-09-18T12:55:39;8.82;;;1.35;;
26864;SDS011;40618;51.166;10.322;2023-09-18T12:58:10;4.95;;;1.25;;
26864;SDS011;40618;51.166;10.322;2023-09-18T13:00:36;2.42;;;1.13;;
26864;SDS011;40618;51.166;10.322;2023-09-18T13:03:12;5.45;;;1.20;;
26864;SDS011;40618;51.166;10.322;2023-09-18T13:05:38;6.45;;;1.20;;
26864;SDS011;40618;51.166;10.322;2023-09-18T13:08:04;3.13;;;1.10;;
26864;SDS011;40618;51.166;10.322;2023-09-18T13:13:31;4.05;;;1.15;;
26864;SDS011;40618;51.166;10.322;2023-09-18T13:15:58;2.10;;;1.45;;
26864;SDS011;40618;51.166;10.322;2023-09-18T13:18:25;5.00;;;1.45;;
26864;SDS011;40618;51.166;10.322;2023-09-18T13:20:52;4.88;;;1.40;;
26864;SDS011;40618;51.166;10.322;2023-09-18T13:23:19;3.22;;;1.30;;
26864;SDS011;40618;51.166;10.322;2023-09-18T13:25:45;4.55;;;1.02;;
26864;SDS011;40618;51.166;10.322;2023-09-18T13:28:12;2.70;;;1.00;;
26864;SDS011;40618;51.166;10.322;2023-09-18T13:30:39;5.03;;;1.80;;
26864;SDS011;40618;51.166;10.322;2023-09-18T13:33:08;3.35;;;1.23;;
26864;SDS011;40618;51.166;10.322;2023-09-18T13:35:41;3.55;;;1.38;;
26864;SDS011;40618;51.166;10.322;2023-09-18T13:38:09;3.10;;;1.42;;
26864;SDS011;40618;51.166;10.322;2023-09-18T13:40:36;2.88;;;1.08;;
26864;SDS011;40618;51.166;10.322;2023-09-18T13:43:08;2.67;;;1.05;;
26864;SDS011;40618;51.166;10.322;2023-09-18T13:45:34;3.20;;;1.30;;
26864;SDS011;40618;51.166;10.322;2023-09-18T13:48:03;3.17;;;1.15;;
26864;SDS011;40618;51.166;10.322;2023-09-18T13:50:31;5.50;;;1.13;;
26864;SDS011;40618;51.166;10.322;2023-09-18T13:52:57;7.55;;;1.25;;
26864;SDS011;40618;51.166;10.322;2023-09-18T13:55:24;2.38;;;1.02;;
26864;SDS011;40618;51.166;10.322;2023-09-18T13:57:50;3.63;;;1.00;;
26864;SDS011;40618;51.166;10.322;2023-09-18T14:00:16;4.22;;;1.30;;
26864;SDS011;40618;51.166;10.322;2023-09-18T14:02:42;1.45;;;1.05;;
26864;SDS011;40618;51.166;10.322;2023-09-18T14:05:08;8.73;;;0.95;;
26864;SDS011;40618;51.166;10.322;2023-09-18T14:07:35;5.22;;;1.60;;
26864;SDS011;40618;51.166;10.322;2023-09-18T14:10:08;2.22;;;1.30;;
26864;SDS011;40618;51.166;10.322;2023-09-18T14:15:06;2.95;;;1.17;;
26864;SDS011;40618;51.166;10.322;2023-09-18T14:17:36;10.63;;;1.60;;
26864;SDS011;40618;51.166;10.322;2023-09-18T14:20:03;6.68;;;1.50;;
26864;SDS011;40618;51.166;10.322;2023-09-18T14:22:34;8.20;;;1.48;;
26864;SDS011;40618;51.166;10.322;2023-09-18T14:25:00;5.20;;;1.65;;
26864;SDS011;40618;51.166;10.322;2023-09-18T14:27:30;22.63;;;2.78;;
26864;SDS011;40618;51.166;10.322;2023-09-18T14:29:56;7.72;;;2.17;;
26864;SDS011;40618;51.166;10.322;2023-09-18T14:32:22;4.63;;;1.35;;
26864;SDS011;40618;51.166;10.322;2023-09-18T14:34:47;7.00;;;1.40;;
26864;SDS011;40618;51.166;10.322;2023-09-18T14:37:13;3.35;;;1.38;;
26864;SDS011;40618;51.166;10.322;2023-09-18T14:39:39;4.40;;;1.40;;
26864;SDS011;40618;51.166;10.322;2023-09-18T14:42:04;4.35;;;1.23;;
26864;SDS011;40618;51.166;10.322;2023-09-18T14:44:30;7.35;;;1.48;;
26864;SDS011;40618;51.166;10.322;2023-09-18T14:46:56;24.30;;;2.97;;
26864;SDS011;40618;51.166;10.322;2023-09-18T14:49:24;8.38;;;1.50;;
26864;SDS011;40618;51.166;10.322;2023-09-18T14:51:52;23.35;;;2.53;;
26864;SDS011;40618;51.166;10.322;2023-09-18T14:54:19;10.40;;;1.80;;
26864;SDS011;40618;51.166;10.322;2023-09-18T14:56:45;16.40;;;2.35;;
26864;SDS011;40618;51.166;10.322;2023-09-18T14:59:12;9.27;;;1.73;;